createdAt,value
2018-12-09T00:00:06.515Z,85.77
2018-12-09T00:02:38.926Z,84.78
2018-12-09T00:05:11.548Z,85.56
2018-12-09T00:07:44.571Z,85.48
2018-12-09T00:10:15.548Z,85.97
2018-12-09T00:12:46.189Z,85.95
2018-12-09T00:15:16.956Z,86.19
2018-12-09T00:17:47.853Z,86.48
2018-12-09T00:20:18.870Z,86.80
2018-12-09T00:22:49.815Z,85.82
2018-12-09T00:25:20.459Z,86.25
2018-12-09T00:27:51.378Z,86.37
2018-12-09T00:30:22.296Z,86.74
2018-12-09T00:32:53.060Z,86.72
2018-12-09T00:35:23.872Z,86.55
2018-12-09T00:37:54.614Z,86.95
2018-12-09T00:40:25.443Z,87.40
2018-12-09T00:42:56.243Z,87.32
2018-12-09T00:45:26.937Z,87.69
2018-12-09T00:47:57.756Z,87.51
2018-12-09T00:50:28.680Z,87.73
2018-12-09T00:52:59.703Z,87.82
2018-12-09T00:55:30.475Z,87.80
2018-12-09T00:58:01.481Z,87.95
2018-12-09T01:00:32.519Z,88.74
2018-12-09T01:03:03.831Z,89.02
2018-12-09T01:05:35.113Z,89.37
2018-12-09T01:08:06.000Z,88.92
2018-12-09T01:10:37.036Z,89.25
2018-12-09T01:13:07.979Z,88.94
2018-12-09T01:15:38.929Z,88.90
2018-12-09T01:18:09.889Z,89.08
2018-12-09T01:20:40.845Z,89.01
2018-12-09T01:23:11.740Z,88.97
2018-12-09T01:25:42.570Z,89.56
2018-12-09T01:28:13.498Z,89.71
2018-12-09T01:30:44.401Z,89.57
2018-12-09T01:33:15.215Z,89.02
2018-12-09T01:35:45.969Z,88.79
2018-12-09T01:38:16.924Z,89.12
2018-12-09T01:40:56.144Z,89.32
2018-12-09T01:43:27.038Z,88.67
2018-12-09T01:45:57.838Z,88.97
2018-12-09T01:48:29.167Z,89.01
2018-12-09T01:51:00.395Z,88.79
2018-12-09T01:54:39.949Z,88.82
2018-12-09T01:57:10.859Z,88.39
2018-12-09T01:59:41.729Z,88.59
2018-12-09T02:02:12.698Z,88.58
2018-12-09T02:04:43.317Z,89.03
2018-12-09T02:07:14.321Z,88.81
2018-12-09T02:09:45.439Z,88.01
2018-12-09T02:12:16.488Z,88.11
2018-12-09T02:14:47.187Z,88.31
2018-12-09T02:17:18.080Z,88.13
2018-12-09T02:19:49.080Z,88.36
2018-12-09T02:22:19.858Z,87.79
2018-12-09T02:24:50.825Z,88.43
2018-12-09T02:27:21.800Z,88.34
2018-12-09T02:29:52.767Z,88.72
2018-12-09T02:32:23.874Z,87.73
2018-12-09T02:34:55.254Z,87.92
2018-12-09T02:37:26.060Z,88.07
2018-12-09T02:39:58.087Z,88.30
2018-12-09T02:42:29.032Z,87.74
2018-12-09T02:44:59.691Z,87.72
2018-12-09T02:47:30.491Z,88.12
2018-12-09T02:50:01.572Z,87.67
2018-12-09T02:52:32.102Z,87.48
2018-12-09T02:55:03.019Z,88.07
2018-12-09T02:57:33.852Z,88.02
2018-12-09T03:00:05.648Z,87.45
2018-12-09T03:02:38.246Z,87.87
2018-12-09T03:05:08.937Z,87.95
2018-12-09T03:07:40.040Z,87.41
2018-12-09T03:10:10.837Z,87.77
2018-12-09T03:12:41.808Z,87.63
2018-12-09T03:15:12.625Z,87.98
2018-12-09T03:17:43.433Z,87.50
2018-12-09T03:20:14.291Z,87.47
2018-12-09T03:22:45.198Z,87.38
2018-12-09T03:25:16.359Z,87.60
2018-12-09T03:27:47.709Z,87.68
2018-12-09T03:30:18.639Z,87.34
2018-12-09T03:32:49.592Z,87.00
2018-12-09T03:35:20.399Z,88.03
2018-12-09T03:37:51.354Z,87.90
2018-12-09T03:40:22.351Z,87.88
2018-12-09T03:42:53.177Z,88.32
2018-12-09T03:45:24.070Z,87.97
2018-12-09T03:47:54.933Z,88.47
2018-12-09T03:50:26.098Z,88.64
2018-12-09T03:52:59.083Z,89.03
2018-12-09T03:55:29.972Z,88.97
2018-12-09T03:58:01.112Z,88.97
2018-12-09T04:00:31.847Z,89.05
2018-12-09T04:03:02.897Z,88.80
2018-12-09T04:05:33.731Z,88.86
2018-12-09T04:08:04.532Z,88.92
2018-12-09T04:10:35.560Z,89.27
2018-12-09T04:13:06.659Z,89.58
2018-12-09T04:15:43.436Z,89.01
2018-12-09T04:18:16.640Z,89.07
2018-12-09T04:20:47.536Z,88.89
2018-12-09T04:23:20.056Z,88.77
2018-12-09T04:25:51.457Z,88.94
2018-12-09T04:28:22.273Z,88.60
2018-12-09T04:30:53.131Z,88.87
2018-12-09T04:33:24.016Z,88.75
2018-12-09T04:35:56.109Z,88.36
2018-12-09T04:38:26.800Z,89.15
2018-12-09T04:40:57.616Z,89.39
2018-12-09T04:43:28.574Z,87.75
2018-12-09T04:45:59.415Z,88.12
2018-12-09T04:48:30.175Z,87.87
2018-12-09T04:51:01.035Z,87.79
2018-12-09T04:53:31.667Z,88.87
2018-12-09T04:56:02.364Z,88.29
2018-12-09T04:58:33.150Z,88.34
2018-12-09T05:01:04.088Z,87.48
2018-12-09T05:03:35.958Z,87.42
2018-12-09T05:06:06.898Z,86.95
2018-12-09T05:08:37.784Z,88.02
2018-12-09T05:11:08.346Z,86.77
2018-12-09T05:13:38.996Z,86.50
2018-12-09T05:16:10.017Z,86.27
2018-12-09T05:18:41.174Z,85.98
2018-12-09T05:21:12.314Z,85.76
2018-12-09T05:23:43.273Z,86.39
2018-12-09T05:26:14.391Z,86.47
2018-12-09T05:28:45.112Z,85.07
2018-12-09T05:31:15.961Z,85.10
2018-12-09T05:33:47.123Z,85.64
2018-12-09T05:36:17.892Z,85.78
2018-12-09T05:38:48.665Z,85.67
2018-12-09T05:41:19.550Z,84.72
2018-12-09T05:43:50.286Z,84.60
2018-12-09T05:46:21.146Z,84.38
2018-12-09T05:48:52.503Z,85.47
2018-12-09T05:51:23.345Z,85.09
2018-12-09T05:53:54.005Z,85.11
2018-12-09T05:56:25.158Z,85.17
2018-12-09T05:58:56.543Z,85.36
2018-12-09T06:01:27.398Z,85.66
2018-12-09T06:03:58.272Z,86.12
2018-12-09T06:06:29.187Z,85.77
2018-12-09T06:09:00.675Z,85.73
2018-12-09T06:11:33.417Z,85.78
2018-12-09T06:14:04.192Z,85.92
2018-12-09T06:16:35.391Z,85.81
2018-12-09T06:19:06.789Z,85.85
2018-12-09T06:21:37.569Z,85.05
2018-12-09T06:24:08.287Z,86.01
2018-12-09T06:26:39.112Z,85.59
2018-12-09T06:29:11.691Z,85.40
2018-12-09T06:31:42.250Z,84.77
2018-12-09T06:34:12.800Z,84.35
2018-12-09T06:36:43.434Z,84.30
2018-12-09T06:39:14.563Z,84.29
2018-12-09T06:41:45.146Z,84.04
2018-12-09T06:44:16.128Z,83.79
2018-12-09T06:46:46.701Z,83.00
2018-12-09T06:49:17.600Z,83.02
2018-12-09T06:51:48.639Z,84.17
2018-12-09T06:54:19.557Z,84.03
2018-12-09T06:56:50.592Z,83.34
2018-12-09T06:59:22.632Z,83.45
2018-12-09T07:01:53.530Z,83.06
2018-12-09T07:04:24.036Z,83.51
2018-12-09T07:06:54.824Z,83.33
2018-12-09T07:09:25.945Z,82.71
2018-12-09T07:11:57.193Z,83.31
2018-12-09T07:14:28.103Z,82.75
2018-12-09T07:16:59.295Z,82.14
2018-12-09T07:19:30.068Z,81.55
2018-12-09T07:22:01.570Z,81.99
2018-12-09T07:24:32.366Z,82.01
2018-12-09T07:27:03.362Z,81.81
2018-12-09T07:29:34.127Z,82.12
2018-12-09T07:32:05.358Z,82.20
2018-12-09T07:34:36.163Z,81.85
2018-12-09T07:37:07.235Z,81.85
2018-12-09T07:39:37.771Z,81.48
2018-12-09T07:42:08.347Z,80.54
2018-12-09T07:44:39.107Z,80.02
2018-12-09T07:47:09.975Z,80.05
2018-12-09T07:49:40.569Z,79.59
2018-12-09T07:52:11.804Z,79.15
2018-12-09T07:54:42.837Z,78.23
2018-12-09T07:57:13.787Z,78.23
2018-12-09T07:59:44.875Z,77.47
2018-12-09T08:02:15.970Z,77.38
2018-12-09T08:04:47.041Z,76.75
2018-12-09T08:07:17.932Z,77.24
2018-12-09T08:09:49.159Z,76.33
2018-12-09T08:12:20.266Z,75.53
2018-12-09T08:14:51.190Z,76.29
2018-12-09T08:17:22.226Z,75.20
2018-12-09T08:19:53.070Z,74.17
2018-12-09T08:22:24.367Z,74.44
2018-12-09T08:24:55.222Z,74.40
2018-12-09T08:27:26.398Z,75.22
2018-12-09T08:29:57.288Z,76.07
2018-12-09T08:32:28.356Z,75.61
2018-12-09T08:34:59.179Z,74.95
2018-12-09T08:37:29.835Z,75.53
2018-12-09T08:40:00.723Z,76.92
2018-12-09T08:42:32.046Z,74.84
2018-12-09T08:45:03.173Z,75.70
2018-12-09T08:47:34.093Z,75.51
2018-12-09T08:50:04.788Z,75.68
2018-12-09T08:52:35.636Z,75.24
2018-12-09T08:55:06.964Z,74.98
2018-12-09T08:57:37.936Z,74.32
2018-12-09T09:00:08.651Z,75.59
2018-12-09T09:02:39.656Z,75.00
2018-12-09T09:05:10.432Z,74.77
2018-12-09T09:07:41.516Z,74.66
2018-12-09T09:10:12.537Z,75.01
2018-12-09T09:12:43.340Z,75.83
2018-12-09T09:15:13.982Z,75.17
2018-12-09T09:17:44.939Z,75.83
2018-12-09T09:20:15.674Z,74.84
2018-12-09T09:22:46.521Z,74.80
2018-12-09T09:25:17.438Z,74.31
2018-12-09T09:27:48.468Z,74.08
2018-12-09T09:30:19.504Z,73.93
2018-12-09T09:32:50.409Z,73.16
2018-12-09T09:35:21.300Z,73.60
2018-12-09T09:37:52.211Z,69.96
2018-12-09T09:40:23.105Z,70.05
2018-12-09T09:42:54.064Z,69.44
2018-12-09T09:45:24.953Z,66.10
2018-12-09T09:47:55.750Z,67.36
2018-12-09T09:50:26.591Z,65.83
2018-12-09T09:52:57.528Z,65.76
2018-12-09T09:55:28.343Z,64.82
2018-12-09T09:57:58.917Z,65.98
2018-12-09T10:00:29.788Z,65.11
2018-12-09T10:03:00.941Z,65.01
2018-12-09T10:05:31.714Z,65.43
2018-12-09T10:08:02.717Z,66.02
2018-12-09T10:10:33.702Z,66.05
2018-12-09T10:13:04.298Z,66.00
2018-12-09T10:15:35.124Z,65.40
2018-12-09T10:18:05.807Z,65.34
2018-12-09T10:20:36.792Z,65.23
2018-12-09T10:23:07.871Z,63.36
2018-12-09T10:25:38.663Z,63.63
2018-12-09T10:28:09.738Z,62.97
2018-12-09T10:30:40.559Z,63.04
2018-12-09T10:33:11.480Z,63.86
2018-12-09T10:35:42.454Z,63.72
2018-12-09T10:38:13.511Z,64.12
2018-12-09T10:40:44.359Z,63.98
2018-12-09T10:43:15.362Z,63.65
2018-12-09T10:45:46.374Z,62.21
2018-12-09T10:48:17.400Z,61.62
2018-12-09T10:50:48.296Z,63.87
2018-12-09T10:53:19.100Z,63.66
2018-12-09T10:55:50.047Z,63.37
2018-12-09T10:58:21.288Z,61.64
2018-12-09T11:00:55.420Z,61.39
2018-12-09T11:03:26.401Z,60.94
2018-12-09T11:05:58.359Z,59.55
2018-12-09T11:08:29.062Z,58.44
2018-12-09T11:11:00.028Z,60.55
2018-12-09T11:13:30.791Z,60.67
2018-12-09T11:16:01.630Z,61.69
2018-12-09T11:18:32.265Z,61.15
2018-12-09T11:21:03.073Z,61.15
2018-12-09T11:23:34.154Z,61.94
2018-12-09T11:26:05.154Z,61.24
2018-12-09T11:28:36.035Z,60.21
2018-12-09T11:31:06.947Z,60.49
2018-12-09T11:33:37.866Z,60.09
2018-12-09T11:36:09.641Z,60.92
2018-12-09T11:38:40.430Z,57.56
2018-12-09T11:41:11.298Z,59.18
2018-12-09T11:43:42.371Z,58.65
2018-12-09T11:46:12.954Z,59.06
2018-12-09T11:48:43.906Z,58.72
2018-12-09T11:51:14.919Z,59.25
2018-12-09T11:53:46.082Z,59.17
2018-12-09T11:56:16.817Z,58.62
2018-12-09T11:58:47.881Z,59.75
2018-12-09T12:01:18.452Z,57.94
2018-12-09T12:03:48.777Z,57.65
2018-12-09T12:06:19.892Z,57.58
2018-12-09T12:08:51.039Z,59.04
2018-12-09T12:11:22.203Z,57.90
2018-12-09T12:13:53.336Z,57.43
2018-12-09T12:16:24.258Z,57.69
2018-12-09T12:18:55.197Z,59.86
2018-12-09T12:21:26.108Z,58.06
2018-12-09T12:23:57.362Z,57.12
2018-12-09T12:26:28.810Z,58.44
2018-12-09T12:29:00.192Z,58.77
2018-12-09T12:31:31.296Z,59.71
2018-12-09T12:34:02.383Z,61.69
2018-12-09T12:36:33.405Z,62.79
2018-12-09T12:39:06.297Z,63.59
2018-12-09T12:41:37.064Z,65.33
2018-12-09T12:44:07.858Z,65.08
2018-12-09T12:46:38.662Z,66.37
2018-12-09T12:49:10.192Z,67.12
2018-12-09T12:51:41.102Z,66.39
2018-12-09T12:54:11.894Z,68.33
2018-12-09T12:56:42.898Z,67.73
2018-12-09T12:59:13.439Z,68.79
2018-12-09T13:01:44.311Z,68.48
2018-12-09T13:04:15.572Z,69.09
2018-12-09T13:06:46.359Z,70.98
2018-12-09T13:09:17.401Z,70.56
2018-12-09T13:11:48.312Z,70.76
2018-12-09T13:14:19.330Z,70.70
2018-12-09T13:16:50.240Z,70.98
2018-12-09T13:19:21.843Z,71.33
2018-12-09T13:21:52.714Z,70.88
2018-12-09T13:24:23.959Z,70.93
2018-12-09T13:26:54.652Z,72.14
2018-12-09T13:29:25.640Z,72.02
2018-12-09T13:31:56.782Z,72.21
2018-12-09T13:34:27.950Z,72.10
2018-12-09T13:36:58.864Z,71.97
2018-12-09T13:39:29.772Z,73.25
2018-12-09T13:42:00.524Z,72.88
2018-12-09T13:44:31.457Z,72.36
2018-12-09T13:47:02.259Z,73.00
2018-12-09T13:49:32.875Z,73.58
2018-12-09T13:52:03.923Z,73.20
2018-12-09T13:54:34.994Z,73.15
2018-12-09T13:57:05.776Z,73.60
2018-12-09T13:59:36.723Z,74.40
2018-12-09T14:02:07.375Z,74.97
2018-12-09T14:04:37.986Z,73.47
2018-12-09T14:07:09.197Z,73.84
2018-12-09T14:09:40.203Z,74.01
2018-12-09T14:12:10.747Z,73.91
2018-12-09T14:14:41.449Z,74.90
2018-12-09T14:17:12.373Z,76.25
2018-12-09T14:19:43.146Z,75.83
2018-12-09T14:22:15.677Z,75.35
2018-12-09T14:24:47.096Z,77.17
2018-12-09T14:27:18.263Z,76.42
2018-12-09T14:29:49.225Z,76.58
2018-12-09T14:32:20.473Z,76.32
2018-12-09T14:34:51.473Z,75.66
2018-12-09T14:37:22.643Z,75.86
2018-12-09T14:39:53.249Z,75.73
2018-12-09T14:42:24.068Z,76.45
2018-12-09T14:44:54.932Z,75.54
2018-12-09T14:47:25.738Z,75.67
2018-12-09T14:49:56.583Z,77.81
2018-12-09T14:52:27.074Z,77.58
2018-12-09T14:54:57.858Z,78.81
2018-12-09T14:57:28.682Z,78.27
2018-12-09T14:59:59.635Z,78.10
2018-12-09T15:02:30.636Z,77.69
2018-12-09T15:05:01.965Z,78.42
2018-12-09T15:07:33.010Z,78.66
2018-12-09T15:10:08.582Z,78.42
2018-12-09T15:12:38.133Z,78.78
2018-12-09T15:15:08.993Z,79.71
2018-12-09T15:17:41.151Z,79.17
2018-12-09T15:20:12.092Z,80.21
2018-12-09T15:22:43.975Z,80.56
2018-12-09T15:25:14.818Z,80.63
2018-12-09T15:27:45.738Z,81.70
2018-12-09T15:30:17.854Z,81.79
2018-12-09T15:32:48.813Z,81.71
2018-12-09T15:35:19.849Z,82.05
2018-12-09T15:37:50.697Z,81.86
2018-12-09T15:40:21.729Z,82.38
2018-12-09T15:42:53.590Z,81.59
2018-12-09T15:45:24.503Z,81.74
2018-12-09T15:47:55.254Z,81.13
2018-12-09T15:50:26.206Z,81.40
2018-12-09T15:52:56.977Z,81.30
2018-12-09T15:55:27.971Z,81.70
2018-12-09T15:57:58.996Z,82.47
2018-12-09T16:00:35.654Z,81.54
2018-12-09T16:03:06.461Z,82.37
2018-12-09T16:05:38.981Z,81.45
2018-12-09T16:08:09.707Z,81.47
2018-12-09T16:10:40.718Z,82.08
2018-12-09T16:13:11.688Z,81.78
2018-12-09T16:15:42.463Z,81.77
2018-12-09T16:18:13.007Z,82.63
2018-12-09T16:20:43.787Z,82.59
2018-12-09T16:23:14.890Z,82.79
2018-12-09T16:25:46.160Z,82.00
2018-12-09T16:28:17.027Z,81.63
2018-12-09T16:30:48.374Z,81.46
2018-12-09T16:33:19.228Z,82.40
2018-12-09T16:35:50.302Z,81.26
2018-12-09T16:38:21.073Z,81.99
2018-12-09T16:40:52.094Z,82.24
2018-12-09T16:43:23.182Z,82.09
2018-12-09T16:45:54.161Z,82.40
2018-12-09T16:48:25.203Z,82.67
2018-12-09T16:50:56.049Z,82.50
2018-12-09T16:53:27.338Z,82.12
2018-12-09T16:55:58.386Z,82.01
2018-12-09T16:58:29.397Z,81.37
2018-12-09T17:01:00.407Z,82.18
2018-12-09T17:03:31.352Z,80.87
2018-12-09T17:06:02.084Z,81.43
2018-12-09T17:08:32.879Z,81.04
2018-12-09T17:11:04.021Z,81.50
2018-12-09T17:13:34.701Z,81.61
2018-12-09T17:16:05.405Z,81.43
2018-12-09T17:18:36.408Z,81.58
2018-12-09T17:21:07.296Z,80.94
2018-12-09T17:23:38.151Z,82.05
2018-12-09T17:26:10.175Z,81.79
2018-12-09T17:28:41.051Z,81.67
2018-12-09T17:31:12.008Z,81.77
2018-12-09T17:33:42.966Z,82.63
2018-12-09T17:36:13.875Z,82.36
2018-12-09T17:38:44.777Z,82.83
2018-12-09T17:41:15.757Z,84.03
2018-12-09T17:43:46.616Z,83.26
2018-12-09T17:46:17.545Z,83.98
2018-12-09T17:48:48.460Z,84.11
2018-12-09T17:51:19.452Z,84.22
2018-12-09T17:53:50.336Z,84.25
2018-12-09T17:56:21.105Z,84.45
2018-12-09T17:58:51.870Z,83.88
2018-12-09T18:01:22.583Z,84.57
2018-12-09T18:03:53.289Z,84.51
2018-12-09T18:06:24.285Z,84.45
2018-12-09T18:08:55.169Z,84.23
2018-12-09T18:11:25.847Z,84.08
2018-12-09T18:13:56.521Z,84.08
2018-12-09T18:16:27.334Z,83.57
2018-12-09T18:18:58.284Z,83.94
2018-12-09T18:21:29.222Z,84.35
2018-12-09T18:24:00.215Z,84.29
2018-12-09T18:26:31.079Z,83.64
2018-12-09T18:29:01.716Z,84.21
2018-12-09T18:31:32.697Z,84.49
2018-12-09T18:34:03.579Z,84.79
2018-12-09T18:36:35.112Z,85.12
2018-12-09T18:39:10.151Z,84.41
2018-12-09T18:41:41.039Z,84.55
2018-12-09T18:44:11.789Z,84.90
2018-12-09T18:46:42.517Z,84.73
2018-12-09T18:49:13.375Z,84.64
2018-12-09T18:51:43.902Z,84.89
2018-12-09T18:54:14.428Z,84.40
2018-12-09T18:56:45.514Z,82.97
2018-12-09T18:59:16.448Z,83.40
2018-12-09T19:01:47.595Z,84.36
2018-12-09T19:04:18.475Z,82.83
2018-12-09T19:06:49.370Z,83.08
2018-12-09T19:09:19.935Z,82.75
2018-12-09T19:11:50.569Z,82.91
2018-12-09T19:14:21.433Z,82.63
2018-12-09T19:16:52.038Z,82.21
2018-12-09T19:19:22.724Z,82.87
2018-12-09T19:21:53.649Z,83.02
2018-12-09T19:24:24.409Z,83.33
2018-12-09T19:26:54.942Z,83.46
2018-12-09T19:29:25.631Z,83.42
2018-12-09T19:31:56.702Z,83.11
2018-12-09T19:34:27.661Z,83.66
2018-12-09T19:36:59.064Z,83.77
2018-12-09T19:39:30.231Z,82.88
2018-12-09T19:42:01.073Z,83.29
2018-12-09T19:44:32.367Z,83.19
2018-12-09T19:47:03.119Z,83.23
2018-12-09T19:49:33.792Z,83.22
2018-12-09T19:52:04.757Z,83.89
2018-12-09T19:54:35.300Z,83.88
2018-12-09T19:57:06.189Z,83.87
2018-12-09T19:59:36.861Z,84.58
2018-12-09T20:02:07.437Z,84.70
2018-12-09T20:04:38.533Z,84.88
2018-12-09T20:07:09.362Z,84.35
2018-12-09T20:09:41.369Z,83.46
2018-12-09T20:12:12.056Z,84.07
2018-12-09T20:14:42.861Z,84.44
2018-12-09T20:17:13.867Z,84.29
2018-12-09T20:19:44.852Z,83.98
2018-12-09T20:22:15.890Z,84.46
2018-12-09T20:24:46.598Z,83.71
2018-12-09T20:27:17.460Z,83.92
2018-12-09T20:29:48.410Z,83.78
2018-12-09T20:32:19.102Z,84.04
2018-12-09T20:34:49.707Z,84.67
2018-12-09T20:37:20.710Z,84.15
2018-12-09T20:39:51.497Z,84.41
2018-12-09T20:42:22.456Z,85.22
2018-12-09T20:44:53.000Z,85.10
2018-12-09T20:47:23.948Z,85.15
2018-12-09T20:49:54.800Z,85.49
2018-12-09T20:52:25.733Z,85.29
2018-12-09T20:54:56.448Z,85.42
2018-12-09T20:57:27.046Z,85.66
2018-12-09T20:59:57.670Z,86.13
2018-12-09T21:02:28.596Z,86.08
2018-12-09T21:04:59.373Z,86.93
2018-12-09T21:07:30.362Z,86.92
2018-12-09T21:10:01.090Z,87.46
2018-12-09T21:12:32.124Z,88.67
2018-12-09T21:15:03.038Z,88.55
2018-12-09T21:17:34.394Z,87.73
2018-12-09T21:20:06.234Z,87.76
2018-12-09T21:22:37.124Z,87.46
2018-12-09T21:25:07.784Z,86.69
2018-12-09T21:27:38.345Z,86.83
2018-12-09T21:30:09.244Z,86.72
2018-12-09T21:32:40.206Z,85.70
2018-12-09T21:35:11.037Z,85.25
2018-12-09T21:37:42.049Z,85.22
2018-12-09T21:40:13.279Z,86.06
2018-12-09T21:42:44.163Z,85.72
2018-12-09T21:45:15.429Z,85.59
2018-12-09T21:47:46.184Z,85.69
2018-12-09T21:50:17.641Z,85.81
2018-12-09T21:52:50.263Z,85.60
2018-12-09T21:55:20.939Z,85.33
2018-12-09T21:57:51.741Z,85.09
2018-12-09T22:00:22.794Z,85.25
2018-12-09T22:02:53.663Z,83.96
2018-12-09T22:05:24.415Z,83.84
2018-12-09T22:07:55.254Z,84.06
2018-12-09T22:10:26.086Z,83.53
2018-12-09T22:12:57.032Z,83.62
2018-12-09T22:15:27.901Z,83.43
2018-12-09T22:17:58.886Z,83.33
2018-12-09T22:20:29.928Z,83.37
2018-12-09T22:23:00.912Z,83.85
2018-12-09T22:25:31.726Z,83.53
2018-12-09T22:28:02.600Z,84.04
2018-12-09T22:30:34.698Z,83.84
2018-12-09T22:33:05.568Z,83.76
2018-12-09T22:35:36.407Z,83.40
2018-12-09T22:38:08.586Z,83.42
2018-12-09T22:40:39.470Z,84.81
2018-12-09T22:43:10.347Z,83.76
2018-12-09T22:45:41.083Z,83.56
2018-12-09T22:48:11.942Z,83.81
2018-12-09T22:50:42.809Z,83.86
2018-12-09T22:53:13.599Z,83.55
2018-12-09T22:55:44.628Z,83.45
2018-12-09T22:58:15.479Z,83.81
2018-12-09T23:00:53.297Z,83.80
2018-12-09T23:03:25.924Z,84.80
2018-12-09T23:05:56.736Z,84.59
2018-12-09T23:08:27.490Z,84.19
2018-12-09T23:10:58.340Z,83.09
2018-12-09T23:13:29.234Z,83.98
2018-12-09T23:16:00.083Z,83.88
2018-12-09T23:18:31.014Z,84.09
2018-12-09T23:21:01.539Z,83.30
2018-12-09T23:23:32.147Z,83.82
2018-12-09T23:26:02.846Z,84.31
2018-12-09T23:28:33.796Z,85.88
2018-12-09T23:31:04.617Z,86.75
2018-12-09T23:33:35.435Z,86.85
2018-12-09T23:36:06.355Z,86.66
2018-12-09T23:38:37.278Z,86.11
2018-12-09T23:41:08.121Z,86.70
2018-12-09T23:43:38.949Z,87.42
2018-12-09T23:46:09.779Z,87.44
2018-12-09T23:48:40.838Z,87.88
2018-12-09T23:51:11.781Z,87.84
2018-12-09T23:53:42.735Z,88.26
2018-12-09T23:56:13.484Z,88.98
2018-12-09T23:58:44.329Z,88.59
